Time;durP1;ratioP1;P1;durP2;ratioP2;P2;SDS_P1;SDS_P2;PMS_P1;PMS_P2;Temp;Humidity;BMP_temperature;BMP_pressure;BME280_temperature;BME280_humidity;BME280_pressure;Samples;Min_cycle;Max_cycle;Signal;HPM_P1;HPM_P2
2022/06/25 03:01:12;;;;;;;0.75;0.15;;;15.50;99.90;;;;;;5917953;23;89022;-87
2022/06/25 03:03:38;;;;;;;1.30;0.10;;;15.50;99.90;;;;;;4911118;28;87994;-83
2022/06/25 03:06:03;;;;;;;0.65;0.10;;;15.40;99.90;;;;;;4905480;28;87420;-85
2022/06/25 03:08:29;;;;;;;1.48;0.25;;;15.40;99.90;;;;;;4916563;28;87002;-85
2022/06/25 03:10:55;;;;;;;2.15;0.10;;;15.40;99.90;;;;;;4925261;28;87340;-86
2022/06/25 03:13:21;;;;;;;2.40;0.30;;;15.40;99.90;;;;;;4925853;28;86696;-83
2022/06/25 03:15:46;;;;;;;0.52;0.00;;;15.40;99.90;;;;;;4928397;28;87081;-83
2022/06/25 03:18:12;;;;;;;1.15;0.10;;;15.40;99.90;;;;;;4927299;28;88699;-83
2022/06/25 03:20:38;;;;;;;1.10;0.20;;;15.40;99.90;;;;;;4927535;28;87929;-83
2022/06/25 03:23:04;;;;;;;2.67;0.25;;;15.30;99.90;;;;;;4930790;28;88560;-83
2022/06/25 03:25:30;;;;;;;3.35;0.35;;;15.20;99.90;;;;;;4930492;28;86765;-83
2022/06/25 03:27:56;;;;;;;2.65;0.20;;;15.20;99.90;;;;;;4933052;28;87690;-82
2022/06/25 03:30:21;;;;;;;2.70;0.20;;;15.20;99.90;;;;;;4954513;28;87751;-82
2022/06/25 03:32:47;;;;;;;2.30;0.30;;;15.10;99.90;;;;;;4934513;28;87088;-82
2022/06/25 03:35:13;;;;;;;1.65;0.20;;;15.10;99.90;;;;;;4934415;28;87334;-83
2022/06/25 03:37:38;;;;;;;1.40;0.30;;;15.00;99.90;;;;;;4933440;28;87311;-82
2022/06/25 03:40:05;;;;;;;0.90;0.20;;;15.00;99.90;;;;;;4933442;28;88455;-82
2022/06/25 03:42:30;;;;;;;2.47;0.30;;;15.00;99.90;;;;;;4935361;28;86495;-82
2022/06/25 03:44:56;;;;;;;3.00;0.20;;;15.10;99.90;;;;;;4933228;28;86298;-83
2022/06/25 03:47:22;;;;;;;1.02;0.20;;;15.10;99.90;;;;;;4933514;28;87615;-82
2022/06/25 03:49:48;;;;;;;0.60;0.20;;;15.20;99.90;;;;;;4930012;28;87543;-83
2022/06/25 03:52:13;;;;;;;0.82;0.15;;;15.20;99.90;;;;;;4927216;28;87935;-83
2022/06/25 03:54:39;;;;;;;1.45;0.10;;;15.50;99.90;;;;;;4933106;28;87103;-83
2022/06/25 03:57:05;;;;;;;1.42;0.38;;;16.10;99.90;;;;;;4919226;28;86967;-85
2022/06/25 03:59:31;;;;;;;1.13;0.10;;;16.70;99.90;;;;;;4914709;28;88779;-86
2022/06/25 04:01:56;;;;;;;0.60;0.20;;;17.30;99.90;;;;;;4910419;28;88333;-86
2022/06/25 04:04:22;;;;;;;0.95;0.20;;;17.90;97.90;;;;;;4922322;28;89407;-81
2022/06/25 04:06:48;;;;;;;0.75;0.10;;;18.20;97.40;;;;;;4926388;28;87285;-80
2022/06/25 04:09:13;;;;;;;1.48;0.15;;;18.50;93.70;;;;;;4919887;28;86900;-82
2022/06/25 04:11:39;;;;;;;1.20;0.30;;;19.00;91.70;;;;;;4926152;28;86979;-80
2022/06/25 04:14:06;;;;;;;3.42;0.20;;;19.30;90.50;;;;;;4925585;28;87487;-79
2022/06/25 04:16:32;;;;;;;0.80;0.10;;;19.60;90.00;;;;;;4923432;28;89037;-79
2022/06/25 04:18:58;;;;;;;3.00;0.35;;;20.00;86.50;;;;;;4921459;28;88916;-79
2022/06/25 04:21:24;;;;;;;1.27;0.32;;;20.30;88.30;;;;;;4929424;28;87013;-80
2022/06/25 04:23:49;;;;;;;1.52;0.35;;;20.30;84.00;;;;;;4924323;28;87036;-80
2022/06/25 04:26:15;;;;;;;2.90;0.38;;;20.50;85.00;;;;;;4928033;28;87317;-81
2022/06/25 04:31:25;;;;;;;0.68;0.35;;;20.90;81.50;;;;;;4921771;28;86935;-85
2022/06/25 04:33:51;;;;;;;0.98;0.20;;;21.40;79.10;;;;;;4921461;28;86307;-85
2022/06/25 04:36:17;;;;;;;2.60;0.13;;;21.50;80.10;;;;;;4924977;28;89305;-84
2022/06/25 04:38:43;;;;;;;1.20;0.30;;;21.90;77.40;;;;;;4925492;28;87064;-83
2022/06/25 04:41:09;;;;;;;1.02;0.45;;;22.20;76.30;;;;;;4933376;28;88586;-82
2022/06/25 04:43:35;;;;;;;2.25;0.40;;;23.20;72.90;;;;;;4930842;28;87045;-83
2022/06/25 04:46:00;;;;;;;1.10;0.50;;;24.10;69.60;;;;;;4934442;28;87454;-82
2022/06/25 04:48:26;;;;;;;2.90;0.65;;;24.20;67.40;;;;;;4932296;28;87034;-82
2022/06/25 04:50:52;;;;;;;1.85;0.30;;;24.50;65.90;;;;;;4931070;28;86785;-82
2022/06/25 04:53:18;;;;;;;2.08;0.63;;;24.90;63.40;;;;;;4933699;28;87125;-82
2022/06/25 04:55:43;;;;;;;3.78;0.57;;;25.10;62.80;;;;;;4933001;28;87172;-83
2022/06/25 04:58:10;;;;;;;1.35;0.50;;;25.40;63.10;;;;;;4934131;28;86584;-83
2022/06/25 05:00:36;;;;;;;1.92;0.47;;;25.70;59.80;;;;;;4932496;28;86887;-82
2022/06/25 05:03:01;;;;;;;1.75;0.55;;;25.40;61.20;;;;;;4933193;28;87149;-82
2022/06/25 05:05:27;;;;;;;1.08;0.70;;;26.30;59.30;;;;;;4931536;28;88327;-83
2022/06/25 05:07:53;;;;;;;1.00;0.63;;;26.90;57.60;;;;;;4933666;28;87977;-83
2022/06/25 05:10:18;;;;;;;0.82;0.43;;;26.80;57.40;;;;;;4933953;28;86601;-82
2022/06/25 05:15:28;;;;;;;2.42;0.63;;;28.20;54.10;;;;;;4932747;28;86969;-82
2022/06/25 05:17:54;;;;;;;1.25;0.77;;;28.40;53.80;;;;;;4934584;28;87061;-83
2022/06/25 05:20:20;;;;;;;2.42;1.52;;;28.70;54.20;;;;;;4933908;28;87041;-83
2022/06/25 05:22:46;;;;;;;1.80;0.82;;;29.20;52.40;;;;;;4931518;28;86331;-83
2022/06/25 05:25:11;;;;;;;1.08;0.93;;;29.40;52.20;;;;;;4933129;28;88121;-83
2022/06/25 05:27:37;;;;;;;3.47;1.02;;;30.00;50.40;;;;;;4935968;28;87344;-83
2022/06/25 05:30:05;;;;;;;1.65;0.90;;;30.10;50.40;;;;;;4930266;28;87974;-83
2022/06/25 05:32:30;;;;;;;3.25;1.17;;;29.50;50.90;;;;;;4932484;28;87311;-83
2022/06/25 05:34:57;;;;;;;1.38;1.27;;;29.50;51.00;;;;;;4931825;28;87772;-84
2022/06/25 05:37:23;;;;;;;1.77;1.00;;;30.10;49.70;;;;;;4932368;28;89380;-83
2022/06/25 05:39:49;;;;;;;1.67;1.25;;;30.80;49.00;;;;;;4932820;28;87340;-83
2022/06/25 05:42:15;;;;;;;2.20;1.05;;;31.20;48.60;;;;;;4933300;28;87091;-83
2022/06/25 05:44:41;;;;;;;2.13;1.15;;;31.30;47.30;;;;;;4931485;28;86994;-83
2022/06/25 05:47:06;;;;;;;1.50;1.15;;;31.00;47.50;;;;;;4929789;28;86229;-83
2022/06/25 05:49:32;;;;;;;2.88;1.30;;;31.40;47.60;;;;;;4931135;28;86950;-83
2022/06/25 05:51:58;;;;;;;2.42;1.23;;;31.60;45.80;;;;;;4933219;28;87265;-84
2022/06/25 05:54:23;;;;;;;2.33;1.80;;;30.90;47.20;;;;;;4933673;28;88159;-83
2022/06/25 05:56:49;;;;;;;1.40;1.20;;;31.10;46.80;;;;;;4930866;28;89704;-83
2022/06/25 05:59:16;;;;;;;1.23;1.10;;;30.60;48.40;;;;;;4923148;28;86956;-83
2022/06/25 06:01:41;;;;;;;1.63;1.25;;;30.90;47.60;;;;;;4933335;28;86813;-83
2022/06/25 06:04:07;;;;;;;4.03;1.85;;;31.30;45.80;;;;;;4930654;28;87249;-83
2022/06/25 06:06:33;;;;;;;2.08;1.88;;;31.70;45.30;;;;;;4929395;28;87343;-83
2022/06/25 06:08:59;;;;;;;2.72;1.77;;;32.10;46.20;;;;;;4928446;28;86990;-83
2022/06/25 06:11:24;;;;;;;1.65;1.48;;;32.70;46.10;;;;;;4930710;28;86256;-83
2022/06/25 06:13:50;;;;;;;1.90;1.33;;;33.60;43.90;;;;;;4929852;28;87080;-83
2022/06/25 06:16:16;;;;;;;4.03;1.95;;;33.50;43.60;;;;;;4929562;28;87149;-83
2022/06/25 06:18:42;;;;;;;2.28;1.65;;;34.10;42.90;;;;;;4932642;28;88105;-84
2022/06/25 06:21:07;;;;;;;2.33;1.52;;;35.00;41.00;;;;;;4928413;28;87115;-84
2022/06/25 06:23:33;;;;;;;2.08;1.67;;;35.60;40.90;;;;;;4929171;28;87024;-83
2022/06/25 06:25:58;;;;;;;6.00;1.70;;;35.80;40.80;;;;;;4931044;28;87372;-83
2022/06/25 06:28:24;;;;;;;3.47;1.65;;;36.20;39.20;;;;;;4929630;28;86845;-83
2022/06/25 06:30:50;;;;;;;2.55;1.63;;;35.60;39.50;;;;;;4930628;28;86715;-83
2022/06/25 06:33:15;;;;;;;1.77;1.63;;;36.00;39.80;;;;;;4928783;28;87020;-83
2022/06/25 06:35:41;;;;;;;2.53;1.67;;;35.90;39.10;;;;;;4929767;28;87352;-83
2022/06/25 06:38:07;;;;;;;2.20;1.83;;;35.70;39.50;;;;;;4930982;28;86296;-83
2022/06/25 06:40:32;;;;;;;2.38;2.17;;;36.10;38.30;;;;;;4931337;28;86904;-84
2022/06/25 06:42:58;;;;;;;2.13;2.00;;;35.40;40.50;;;;;;4932282;28;88085;-83
2022/06/25 06:45:24;;;;;;;1.92;1.80;;;35.90;39.00;;;;;;4931013;28;87080;-84
2022/06/25 06:47:49;;;;;;;3.08;2.15;;;35.60;39.70;;;;;;4931568;28;87056;-84
2022/06/25 06:50:15;;;;;;;4.25;2.47;;;36.30;39.40;;;;;;4933234;28;86936;-84
2022/06/25 06:52:41;;;;;;;2.38;2.03;;;35.30;39.90;;;;;;4930736;28;87015;-84
2022/06/25 06:55:07;;;;;;;2.78;1.95;;;35.50;40.90;;;;;;4931912;28;86806;-83
2022/06/25 06:57:34;;;;;;;1.90;1.17;;;36.90;38.50;;;;;;4931427;28;86810;-84
2022/06/25 07:00:06;;;;;;;1.92;1.73;;;37.60;38.80;;;;;;4932548;28;86006;-84
2022/06/25 07:02:33;;;;;;;2.20;1.77;;;38.20;37.80;;;;;;4931935;28;87446;-83
2022/06/25 07:04:59;;;;;;;2.25;1.98;;;39.10;37.10;;;;;;4931777;28;87689;-83
2022/06/25 07:07:24;;;;;;;2.67;1.80;;;39.60;36.00;;;;;;4931245;28;88076;-84
2022/06/25 07:09:50;;;;;;;2.75;2.55;;;40.00;35.60;;;;;;4934052;28;86790;-84
2022/06/25 07:12:16;;;;;;;3.35;2.47;;;40.50;35.50;;;;;;4933675;28;89191;-84
2022/06/25 07:14:42;;;;;;;2.70;2.30;;;39.10;37.50;;;;;;4929310;28;87375;-84
2022/06/25 07:17:08;;;;;;;5.07;3.45;;;40.30;35.90;;;;;;4932846;28;86942;-84
2022/06/25 07:19:33;;;;;;;3.80;2.22;;;41.00;34.70;;;;;;4932218;28;87002;-83
2022/06/25 07:21:59;;;;;;;4.28;2.78;;;41.50;33.60;;;;;;4930588;28;87084;-84
2022/06/25 07:24:25;;;;;;;2.17;1.98;;;41.80;34.60;;;;;;4930725;28;88733;-84
2022/06/25 07:26:51;;;;;;;3.33;2.97;;;42.50;33.80;;;;;;4932711;28;86281;-84
2022/06/25 07:29:17;;;;;;;2.97;2.58;;;43.10;33.90;;;;;;4932449;28;87358;-84
2022/06/25 07:31:43;;;;;;;3.25;2.95;;;44.00;32.10;;;;;;4930852;28;88664;-84
2022/06/25 07:34:09;;;;;;;3.47;3.17;;;44.10;31.40;;;;;;4930119;28;88475;-84
2022/06/25 07:36:34;;;;;;;3.92;3.50;;;44.40;32.00;;;;;;4930998;28;86933;-84
2022/06/25 07:39:03;;;;;;;6.65;3.90;;;44.60;31.10;;;;;;4932709;28;86837;-83
2022/06/25 07:41:28;;;;;;;3.70;3.33;;;44.40;31.80;;;;;;4933223;28;87579;-84
2022/06/25 07:43:54;;;;;;;5.32;4.88;;;43.70;32.60;;;;;;4935206;28;87033;-84
2022/06/25 07:46:20;;;;;;;4.30;3.30;;;44.10;32.00;;;;;;4928491;28;87103;-84
2022/06/25 07:48:46;;;;;;;4.15;3.65;;;44.40;31.30;;;;;;4931757;28;86267;-84
2022/06/25 07:53:56;;;;;;;4.38;3.97;;;45.40;31.00;;;;;;4932035;28;87893;-84
2022/06/25 07:56:22;;;;;;;4.43;4.03;;;44.70;32.00;;;;;;4936932;28;87925;-84
2022/06/25 07:58:48;;;;;;;4.68;4.10;;;44.20;32.40;;;;;;4935226;28;86629;-84
2022/06/25 08:01:16;;;;;;;4.90;4.50;;;45.00;31.30;;;;;;4949905;28;87875;-83
2022/06/25 08:03:42;;;;;;;4.65;4.25;;;44.20;31.40;;;;;;4930715;28;87318;-84
2022/06/25 08:06:10;;;;;;;4.75;4.35;;;45.00;31.60;;;;;;4931389;28;86879;-84
2022/06/25 08:08:35;;;;;;;;;;;45.00;31.90;;;;;;4929903;28;86956;-85
2022/06/25 08:11:01;;;;;;;6.03;4.97;;;45.50;30.90;;;;;;4927974;28;87526;-84
2022/06/25 08:13:27;;;;;;;4.70;4.22;;;46.30;30.60;;;;;;4931314;28;86956;-85
2022/06/25 08:15:54;;;;;;;6.00;4.53;;;45.10;30.50;;;;;;4920930;28;87289;-83
2022/06/25 08:18:20;;;;;;;5.40;4.95;;;46.50;30.50;;;;;;4930259;28;86937;-84
2022/06/25 08:20:46;;;;;;;5.15;4.75;;;47.20;29.20;;;;;;4930931;28;89965;-84
2022/06/25 08:23:12;;;;;;;5.10;3.88;;;44.80;29.90;;;;;;4932826;28;87775;-84
2022/06/25 08:25:38;;;;;;;5.13;4.72;;;43.50;32.00;;;;;;4928189;28;86988;-84
2022/06/25 08:28:04;;;;;;;4.90;4.50;;;44.40;31.00;;;;;;4923802;28;87046;-84
2022/06/25 08:30:29;;;;;;;4.60;4.20;;;43.30;31.40;;;;;;4923488;28;87639;-84
2022/06/25 08:32:55;;;;;;;4.20;3.90;;;44.80;30.00;;;;;;4925160;28;86566;-85
2022/06/25 08:35:22;;;;;;;4.03;3.40;;;45.20;30.80;;;;;;4925533;28;87009;-84
2022/06/25 08:37:49;;;;;;;4.95;4.45;;;45.50;30.60;;;;;;4927640;28;86995;-84
2022/06/25 08:40:17;;;;;;;4.50;4.18;;;47.00;29.70;;;;;;4919309;28;87518;-84
2022/06/25 08:42:43;;;;;;;3.80;3.50;;;47.80;28.50;;;;;;4921690;28;86973;-84
2022/06/25 08:45:09;;;;;;;5.97;5.53;;;48.00;28.70;;;;;;4923923;28;88067;-84
2022/06/25 08:47:43;;;;;;;2.92;2.60;;;46.70;30.20;;;;;;4922151;28;87000;-84
2022/06/25 08:50:10;;;;;;;5.40;5.00;;;46.40;28.90;;;;;;4920591;28;87322;-82
2022/06/25 08:52:37;;;;;;;6.03;4.13;;;46.50;29.30;;;;;;4916376;28;89148;-83
2022/06/25 08:55:04;;;;;;;4.53;4.22;;;47.00;29.10;;;;;;4921735;28;87110;-84
2022/06/25 08:57:30;;;;;;;4.53;4.13;;;47.60;28.80;;;;;;4923323;28;87151;-82
2022/06/25 08:59:56;;;;;;;4.82;4.43;;;46.60;29.60;;;;;;4918419;28;88085;-82
2022/06/25 09:02:22;;;;;;;5.13;4.70;;;43.90;31.10;;;;;;4919009;28;88803;-82
2022/06/25 09:04:47;;;;;;;5.15;4.75;;;43.50;30.70;;;;;;4925400;28;87257;-82
2022/06/25 09:07:16;;;;;;;4.22;3.83;;;44.80;31.50;;;;;;4927068;28;87035;-82
2022/06/25 09:09:46;;;;;;;4.47;4.18;;;46.00;29.20;;;;;;4924651;28;90204;-82
2022/06/25 09:12:16;;;;;;;2.08;1.88;;;45.20;29.30;;;;;;4924275;28;88166;-82
2022/06/25 09:14:42;;;;;;;5.15;4.55;;;45.40;30.60;;;;;;4926417;28;87871;-82
2022/06/25 09:17:12;;;;;;;7.20;5.40;;;46.40;30.20;;;;;;4925464;28;86906;-82
2022/06/25 09:19:41;;;;;;;5.18;4.80;;;47.20;30.40;;;;;;4924619;28;87249;-82
2022/06/25 09:22:15;;;;;;;5.68;5.28;;;48.50;29.30;;;;;;4925907;28;88537;-84
2022/06/25 09:24:55;;;;;;;7.20;6.68;;;48.20;28.60;;;;;;4925280;28;87071;-84
2022/06/25 09:27:40;;;;;;;6.05;5.55;;;49.10;28.70;;;;;;4924394;28;86275;-82
2022/06/25 09:30:16;;;;;;;7.20;6.65;;;49.50;27.80;;;;;;4923768;28;88158;-82
2022/06/25 09:32:56;;;;;;;6.30;5.72;;;49.00;28.20;;;;;;4923559;28;87533;-82
2022/06/25 09:35:36;;;;;;;6.93;6.43;;;49.20;28.90;;;;;;4917385;28;88104;-82
2022/06/25 09:38:06;;;;;;;6.53;6.07;;;49.90;27.90;;;;;;4924390;28;86847;-82
2022/06/25 09:40:32;;;;;;;8.55;7.95;;;49.40;28.40;;;;;;4923666;28;87348;-82
2022/06/25 09:42:58;;;;;;;7.40;6.47;;;48.40;28.70;;;;;;4917429;28;88108;-83
2022/06/25 09:45:25;;;;;;;6.47;5.97;;;47.80;29.10;;;;;;4917853;28;86900;-84
2022/06/25 09:47:53;;;;;;;7.75;6.95;;;47.70;28.60;;;;;;4924835;28;87035;-84
2022/06/25 09:50:19;;;;;;;6.38;5.88;;;47.90;28.50;;;;;;4919138;28;87520;-85
2022/06/25 09:52:59;;;;;;;6.07;5.68;;;48.20;28.70;;;;;;4922851;28;87294;-85
2022/06/25 09:55:31;;;;;;;5.30;4.88;;;48.10;27.80;;;;;;4925872;28;87019;-83
2022/06/25 09:58:00;;;;;;;5.35;4.95;;;46.90;28.60;;;;;;4925216;28;87594;-84
2022/06/25 10:00:26;;;;;;;3.25;2.30;;;46.00;29.40;;;;;;4924927;28;90108;-85
2022/06/25 10:02:54;;;;;;;5.65;5.25;;;45.60;30.00;;;;;;4924853;28;88276;-84
2022/06/25 10:05:46;;;;;;;;;;;45.80;30.30;;;;;;4925385;28;87193;-82
2022/06/25 10:08:15;;;;;;;6.40;5.88;;;45.40;29.50;;;;;;4919657;28;87041;-82
2022/06/25 10:10:43;;;;;;;4.65;4.25;;;44.40;29.90;;;;;;4925777;28;87056;-82
2022/06/25 10:13:09;;;;;;;5.20;4.68;;;43.30;29.50;;;;;;4925024;28;88206;-82
2022/06/25 10:15:36;;;;;;;2.38;2.17;;;39.80;32.60;;;;;;4926011;28;86906;-84
2022/06/25 10:18:04;;;;;;;4.72;4.43;;;36.50;35.00;;;;;;4928084;28;85971;-84
2022/06/25 10:20:31;;;;;;;2.28;1.67;;;35.30;35.00;;;;;;4924433;28;88216;-84
2022/06/25 10:22:59;;;;;;;3.05;2.85;;;33.90;40.40;;;;;;4923706;28;87016;-83
2022/06/25 10:25:26;;;;;;;;;;;32.10;42.50;;;;;;4925128;28;87828;-84
2022/06/25 10:28:06;;;;;;;1.42;1.33;;;31.00;44.80;;;;;;4925446;28;86677;-84
2022/06/25 10:30:58;;;;;;;1.63;0.98;;;30.50;45.10;;;;;;4924641;28;87222;-83
2022/06/25 10:33:27;;;;;;;3.05;2.85;;;30.20;44.00;;;;;;4921141;28;87031;-84
2022/06/25 10:35:58;;;;;;;2.08;1.88;;;30.10;43.80;;;;;;4923258;28;86866;-83
2022/06/25 10:38:26;;;;;;;1.45;1.35;;;29.90;45.50;;;;;;4921725;28;86548;-83
2022/06/25 10:43:53;;;;;;;1.42;1.33;;;29.20;49.60;;;;;;4924000;28;86995;-83
2022/06/25 10:46:23;;;;;;;1.70;1.30;;;29.00;50.00;;;;;;4923856;28;86945;-83
2022/06/25 10:49:10;;;;;;;1.30;1.05;;;28.70;50.20;;;;;;4920647;28;87017;-83
2022/06/25 10:51:38;;;;;;;2.20;1.35;;;28.20;49.00;;;;;;4918803;28;88779;-83
2022/06/25 10:54:06;;;;;;;1.92;1.13;;;28.40;51.20;;;;;;4923737;28;88963;-83
2022/06/25 10:56:44;;;;;;;1.52;1.10;;;28.60;48.60;;;;;;4924832;28;87591;-83
2022/06/25 10:59:10;;;;;;;3.08;1.00;;;28.70;50.10;;;;;;4919289;28;86900;-84
2022/06/25 11:01:35;;;;;;;1.42;1.33;;;28.70;46.80;;;;;;4924138;28;87677;-84
2022/06/25 11:04:03;;;;;;;3.08;0.30;;;28.20;50.90;;;;;;4924185;28;87285;-83
2022/06/25 11:06:34;;;;;;;2.10;1.38;;;28.30;47.80;;;;;;4924476;28;87024;-83
2022/06/25 11:09:15;;;;;;;2.05;1.35;;;28.30;51.70;;;;;;4926500;28;86738;-84
2022/06/25 11:11:43;;;;;;;1.52;1.20;;;27.90;50.00;;;;;;4923730;28;87377;-83
2022/06/25 11:14:14;;;;;;;3.42;0.40;;;27.70;52.00;;;;;;4923681;28;90424;-83
2022/06/25 11:16:40;;;;;;;1.60;1.02;;;27.80;50.80;;;;;;4924080;28;87740;-83
2022/06/25 11:19:05;;;;;;;4.93;1.67;;;27.90;51.70;;;;;;4924266;28;87062;-83
2022/06/25 11:21:37;;;;;;;2.65;1.20;;;27.90;52.40;;;;;;4923776;28;87289;-83
2022/06/25 11:24:17;;;;;;;0.70;0.47;;;28.00;51.80;;;;;;4923203;28;87433;-83
2022/06/25 11:29:51;;;;;;;0.90;0.40;;;27.50;53.90;;;;;;4923690;28;86959;-83
2022/06/25 11:32:20;;;;;;;0.90;0.38;;;27.60;54.10;;;;;;4923065;28;90691;-83
2022/06/25 11:34:51;;;;;;;1.83;0.80;;;27.70;53.80;;;;;;4924048;28;88011;-84
2022/06/25 11:37:18;;;;;;;2.22;1.23;;;27.70;52.50;;;;;;4923944;28;87006;-83
2022/06/25 11:39:45;;;;;;;1.90;1.15;;;27.70;52.20;;;;;;4923057;28;87121;-83
2022/06/25 11:42:11;;;;;;;1.40;1.25;;;27.50;54.10;;;;;;4920361;28;88703;-83
2022/06/25 11:44:49;;;;;;;1.80;0.75;;;27.70;53.60;;;;;;4921518;28;88750;-84
2022/06/25 11:47:19;;;;;;;1.20;0.60;;;28.00;51.50;;;;;;4924536;28;86925;-83
2022/06/25 11:49:45;;;;;;;2.72;0.52;;;27.70;53.40;;;;;;4919157;28;87198;-83
2022/06/25 11:52:12;;;;;;;1.98;0.95;;;27.40;56.10;;;;;;4927275;28;88495;-83
2022/06/25 11:54:40;;;;;;;3.03;0.80;;;27.60;54.10;;;;;;4926110;28;87034;-83
2022/06/25 11:57:17;;;;;;;1.00;0.73;;;27.60;50.50;;;;;;4926500;28;87341;-83
2022/06/25 11:59:43;;;;;;;1.30;0.50;;;27.40;54.80;;;;;;4926777;28;86236;-83
2022/06/25 12:02:11;;;;;;;1.52;0.73;;;27.00;52.70;;;;;;4926945;28;87858;-83
2022/06/25 12:04:54;;;;;;;0.80;0.30;;;27.20;53.50;;;;;;4926816;28;87451;-83
2022/06/25 12:07:22;;;;;;;1.58;1.13;;;27.10;53.70;;;;;;4922883;28;87844;-83
2022/06/25 12:09:48;;;;;;;1.00;0.75;;;27.00;53.00;;;;;;4927074;28;87606;-83
2022/06/25 12:12:16;;;;;;;2.80;0.80;;;27.10;54.00;;;;;;4926701;28;87815;-83
2022/06/25 12:14:43;;;;;;;2.50;1.20;;;27.50;52.50;;;;;;4925805;28;87614;-83
2022/06/25 12:17:10;;;;;;;1.42;0.20;;;27.30;54.30;;;;;;4926963;28;87060;-83
2022/06/25 12:19:55;;;;;;;1.15;0.50;;;27.20;55.80;;;;;;4926877;28;87086;-83
2022/06/25 12:22:30;;;;;;;1.45;0.63;;;27.40;54.80;;;;;;4926527;28;86823;-83
2022/06/25 12:25:00;;;;;;;2.97;0.93;;;27.50;55.20;;;;;;4924745;28;86875;-83
2022/06/25 12:27:27;;;;;;;2.88;0.80;;;27.30;56.40;;;;;;4926266;28;86956;-84
2022/06/25 12:29:55;;;;;;;3.17;0.80;;;27.10;55.30;;;;;;4926826;28;86919;-83
2022/06/25 12:32:39;;;;;;;1.17;0.75;;;27.00;54.00;;;;;;4929441;28;89181;-83
2022/06/25 12:35:27;;;;;;;1.35;1.02;;;27.10;52.90;;;;;;4922228;28;87393;-83
2022/06/25 12:38:05;;;;;;;1.50;0.98;;;27.00;53.70;;;;;;4926361;28;86866;-83
2022/06/25 12:40:39;;;;;;;1.40;0.90;;;27.30;55.20;;;;;;4923091;28;86911;-83
2022/06/25 12:43:06;;;;;;;1.42;0.73;;;27.40;53.10;;;;;;4917192;28;87837;-83
2022/06/25 12:45:33;;;;;;;1.85;0.75;;;27.40;53.30;;;;;;4915280;28;87276;-83
2022/06/25 12:47:59;;;;;;;1.20;0.80;;;27.40;54.50;;;;;;4926291;28;87434;-83
2022/06/25 12:50:31;;;;;;;2.10;0.60;;;27.20;54.00;;;;;;4926068;28;86429;-83
2022/06/25 12:53:09;;;;;;;1.35;0.70;;;27.10;55.70;;;;;;4926009;28;87688;-83
2022/06/25 12:55:36;;;;;;;1.73;0.70;;;26.90;52.40;;;;;;4917524;28;87013;-83
2022/06/25 12:58:07;;;;;;;1.30;0.90;;;27.00;54.90;;;;;;4925210;28;87516;-83
2022/06/25 13:00:35;;;;;;;1.70;1.10;;;27.20;54.90;;;;;;4924700;28;87164;-84
2022/06/25 13:03:00;;;;;;;1.30;0.55;;;27.30;55.80;;;;;;4926222;28;87505;-83
2022/06/25 13:05:26;;;;;;;0.95;0.52;;;27.20;56.50;;;;;;4925669;28;88864;-83
2022/06/25 13:07:52;;;;;;;1.08;0.55;;;27.20;55.00;;;;;;4927039;28;86983;-83
2022/06/25 13:10:18;;;;;;;1.65;1.02;;;27.10;53.00;;;;;;4931611;28;86889;-83
2022/06/25 13:12:44;;;;;;;1.10;0.70;;;26.90;54.00;;;;;;4936924;28;87161;-83
2022/06/25 13:15:11;;;;;;;1.50;0.98;;;26.80;54.20;;;;;;4937579;28;86857;-82
2022/06/25 13:17:37;;;;;;;2.08;0.95;;;26.80;54.90;;;;;;4936504;28;86745;-82
2022/06/25 13:20:04;;;;;;;1.00;0.60;;;27.10;53.30;;;;;;4931029;28;87074;-83
2022/06/25 13:22:30;;;;;;;2.42;0.70;;;27.10;51.40;;;;;;4925279;28;89394;-83
2022/06/25 13:24:56;;;;;;;1.30;0.75;;;27.10;53.50;;;;;;4926279;28;87138;-83
2022/06/25 13:27:22;;;;;;;2.10;1.10;;;27.20;53.80;;;;;;4924551;28;87362;-83
2022/06/25 13:29:48;;;;;;;1.17;0.93;;;27.20;54.30;;;;;;4924181;28;87113;-83
2022/06/25 13:32:17;;;;;;;2.60;0.57;;;27.20;54.40;;;;;;4925064;28;88008;-83
2022/06/25 13:34:48;;;;;;;1.80;0.95;;;27.30;55.30;;;;;;4925488;28;87327;-82
2022/06/25 13:37:14;;;;;;;1.48;0.90;;;27.20;53.70;;;;;;4925633;28;86980;-83
2022/06/25 13:39:40;;;;;;;1.60;1.08;;;27.20;51.70;;;;;;4920624;28;86219;-83
2022/06/25 13:42:07;;;;;;;3.00;0.73;;;27.30;51.40;;;;;;4925306;28;87032;-83
2022/06/25 13:44:36;;;;;;;2.13;0.52;;;27.10;53.20;;;;;;4924949;28;87809;-83
2022/06/25 13:47:06;;;;;;;3.33;0.85;;;27.20;54.00;;;;;;4926040;28;87980;-83
2022/06/25 13:49:33;;;;;;;0.90;0.70;;;26.90;54.50;;;;;;4916061;28;87091;-83
2022/06/25 13:52:00;;;;;;;1.35;0.98;;;27.00;54.60;;;;;;4921944;28;87521;-83
2022/06/25 13:54:29;;;;;;;1.70;0.65;;;27.00;52.80;;;;;;4925640;28;88214;-83
2022/06/25 13:56:55;;;;;;;1.35;1.00;;;27.20;52.70;;;;;;4925469;28;86560;-83
2022/06/25 13:59:21;;;;;;;1.60;0.95;;;27.10;53.00;;;;;;4926179;28;86944;-83
2022/06/25 14:01:47;;;;;;;1.15;0.70;;;27.30;51.20;;;;;;4924623;28;87380;-83
2022/06/25 14:04:13;;;;;;;1.10;1.00;;;27.20;51.10;;;;;;4924727;28;86253;-83
2022/06/25 14:06:39;;;;;;;1.80;0.75;;;27.20;51.90;;;;;;4924909;28;86920;-83
2022/06/25 14:09:06;;;;;;;2.00;0.50;;;27.30;52.60;;;;;;4924547;28;86934;-83
2022/06/25 14:11:32;;;;;;;6.57;1.40;;;27.30;51.90;;;;;;4924257;28;87941;-83
2022/06/25 14:13:59;;;;;;;3.92;1.33;;;27.30;53.50;;;;;;4927258;28;88778;-83
2022/06/25 14:16:25;;;;;;;2.78;1.15;;;27.30;53.60;;;;;;4928587;28;87319;-83
2022/06/25 14:18:50;;;;;;;1.00;0.77;;;27.20;52.50;;;;;;4925288;28;86942;-82
2022/06/25 14:21:16;;;;;;;1.52;0.98;;;27.20;49.80;;;;;;4924694;28;87284;-83
2022/06/25 14:23:42;;;;;;;1.55;1.10;;;27.10;52.10;;;;;;4924903;28;87931;-83
2022/06/25 14:26:08;;;;;;;1.67;1.08;;;27.20;51.40;;;;;;4924898;28;87031;-83
2022/06/25 14:28:33;;;;;;;1.02;0.65;;;27.20;51.00;;;;;;4926045;28;86285;-83
2022/06/25 14:30:59;;;;;;;2.15;0.98;;;27.20;50.80;;;;;;4925465;28;87699;-83
2022/06/25 14:33:25;;;;;;;1.85;0.52;;;27.20;49.90;;;;;;4925266;28;86971;-82
2022/06/25 14:44:04;;;;;;;2.13;1.02;;;27.30;49.50;;;;;;4924387;28;87089;-82
2022/06/25 14:46:30;;;;;;;1.17;0.68;;;27.30;49.70;;;;;;4924613;28;87420;-83
2022/06/25 14:48:56;;;;;;;1.20;0.98;;;27.40;49.80;;;;;;4927161;28;87215;-82
2022/06/25 14:51:21;;;;;;;1.20;0.77;;;27.40;49.70;;;;;;4924478;28;87489;-83
2022/06/25 14:53:47;;;;;;;3.35;1.00;;;27.30;50.00;;;;;;4924593;28;88882;-83
2022/06/25 14:56:13;;;;;;;1.38;0.82;;;27.40;49.10;;;;;;4924599;28;86616;-83
2022/06/25 14:58:39;;;;;;;1.10;0.32;;;27.40;50.00;;;;;;4924377;28;87589;-83
2022/06/25 15:01:06;;;;;;;1.40;0.82;;;27.30;49.30;;;;;;4923531;28;89165;-82
2022/06/25 15:03:33;;;;;;;1.27;0.90;;;27.10;48.90;;;;;;4924593;28;90219;-83
2022/06/25 15:05:58;;;;;;;1.52;0.70;;;27.10;49.50;;;;;;4924944;28;86842;-83
2022/06/25 15:08:24;;;;;;;1.00;0.52;;;27.20;49.20;;;;;;4923152;28;87062;-83
2022/06/25 15:10:50;;;;;;;1.30;0.88;;;27.30;50.10;;;;;;4923937;28;87397;-83
2022/06/25 15:13:16;;;;;;;1.75;0.73;;;27.40;50.50;;;;;;4919945;28;87147;-83
2022/06/25 15:15:43;;;;;;;1.27;1.08;;;27.20;49.60;;;;;;4922009;28;86993;-83
2022/06/25 15:18:09;;;;;;;1.45;0.95;;;26.90;50.40;;;;;;4925126;28;86214;-83
2022/06/25 15:20:35;;;;;;;2.65;1.17;;;27.10;50.30;;;;;;4923802;28;87219;-83
2022/06/25 15:23:01;;;;;;;1.40;1.02;;;27.10;50.50;;;;;;4925909;28;87230;-83
2022/06/25 15:25:26;;;;;;;0.93;0.55;;;26.90;49.20;;;;;;4926952;28;87930;-83
2022/06/25 15:27:52;;;;;;;3.03;0.60;;;26.90;50.40;;;;;;4927248;28;86622;-83
2022/06/25 15:30:18;;;;;;;0.98;0.70;;;27.00;50.80;;;;;;4927666;28;87184;-83
2022/06/25 15:32:44;;;;;;;1.65;1.05;;;27.10;51.40;;;;;;4927251;28;86954;-83
2022/06/25 15:35:10;;;;;;;1.20;0.80;;;27.10;50.40;;;;;;4926830;28;86983;-83
2022/06/25 15:37:36;;;;;;;1.52;0.80;;;27.00;50.20;;;;;;4916810;28;86647;-84
2022/06/25 15:40:02;;;;;;;4.00;1.10;;;27.10;49.40;;;;;;4927361;28;87048;-83
2022/06/25 15:42:27;;;;;;;1.48;1.02;;;27.20;50.60;;;;;;4927396;28;88185;-83
2022/06/25 15:44:53;;;;;;;3.38;1.38;;;27.10;49.00;;;;;;4926597;28;86922;-83
2022/06/25 15:47:19;;;;;;;1.58;1.00;;;27.00;49.20;;;;;;4927076;28;86952;-83
2022/06/25 15:49:45;;;;;;;4.82;0.65;;;27.00;48.80;;;;;;4926371;28;87860;-83
2022/06/25 15:52:10;;;;;;;1.05;0.60;;;26.90;49.90;;;;;;4930016;28;89226;-83
2022/06/25 15:54:36;;;;;;;2.75;1.23;;;27.00;49.20;;;;;;4925314;28;86882;-82
2022/06/25 15:57:03;;;;;;;1.95;0.70;;;27.10;50.00;;;;;;4926936;28;87160;-83
2022/06/25 15:59:28;;;;;;;1.23;0.60;;;27.00;49.90;;;;;;4927424;28;89216;-83
2022/06/25 16:02:02;;;;;;;0.95;0.73;;;26.90;49.40;;;;;;4926533;28;89021;-83
2022/06/25 16:04:30;;;;;;;2.50;0.75;;;26.80;50.30;;;;;;4927374;28;87038;-83
2022/06/25 16:06:56;;;;;;;1.77;1.17;;;26.90;49.90;;;;;;4927185;28;86377;-83
2022/06/25 16:09:23;;;;;;;1.63;1.15;;;26.90;49.80;;;;;;4926162;28;88205;-83
2022/06/25 16:11:50;;;;;;;3.58;0.88;;;27.00;49.00;;;;;;4926745;28;87970;-83